Time;durP1;ratioP1;P1;durP2;ratioP2;P2;SDS_P1;SDS_P2;PMS_P1;PMS_P2;Temp;Humidity;BMP_temperature;BMP_pressure;BME280_temperature;BME280_humidity;BME280_pressure;Samples;Min_cycle;Max_cycle;Signal;HPM_P1;HPM_P2
2021/01/24 00:01:05;;;;;;;15.20;7.65;;;0.90;99.90;;;;;;5024345;28;20112;-78
2021/01/24 00:03:31;;;;;;;13.65;7.85;;;0.90;99.90;;;;;;5000136;28;20515;-78
2021/01/24 00:05:57;;;;;;;14.43;7.18;;;0.90;99.90;;;;;;5029575;28;20567;-77
2021/01/24 00:08:22;;;;;;;14.52;7.47;;;0.80;99.90;;;;;;5017622;28;20041;-78
2021/01/24 00:10:48;;;;;;;14.60;6.93;;;0.80;99.90;;;;;;5036894;28;20029;-78
2021/01/24 00:13:14;;;;;;;14.00;7.10;;;0.90;99.90;;;;;;5001314;28;20029;-78
2021/01/24 00:15:40;;;;;;;14.02;8.20;;;0.90;99.90;;;;;;5009980;28;20060;-78
2021/01/24 00:18:05;;;;;;;14.30;7.43;;;0.80;99.90;;;;;;5002106;28;20061;-78
2021/01/24 00:20:31;;;;;;;17.73;8.52;;;0.80;99.90;;;;;;5019797;28;20029;-77
2021/01/24 00:22:57;;;;;;;13.85;7.45;;;0.80;99.90;;;;;;5039270;28;20101;-78
2021/01/24 00:25:22;;;;;;;13.93;7.53;;;0.80;99.90;;;;;;5003992;28;20136;-77
2021/01/24 00:27:48;;;;;;;18.52;8.32;;;0.70;99.90;;;;;;5036158;28;20492;-77
2021/01/24 00:30:14;;;;;;;14.43;7.97;;;0.80;99.90;;;;;;5003853;28;20037;-77
2021/01/24 00:32:40;;;;;;;15.32;8.07;;;0.80;99.90;;;;;;5037774;28;20041;-78
2021/01/24 00:35:10;;;;;;;14.57;7.70;;;0.80;99.90;;;;;;5020760;28;20402;-77
2021/01/24 00:37:36;;;;;;;17.45;8.13;;;0.80;99.90;;;;;;5030315;28;20037;-77
2021/01/24 00:40:05;;;;;;;15.90;8.55;;;0.70;99.90;;;;;;5019189;28;20065;-77
2021/01/24 00:42:32;;;;;;;14.48;8.20;;;0.70;99.90;;;;;;5049678;28;20043;-78
2021/01/24 00:44:57;;;;;;;18.35;8.52;;;0.70;99.90;;;;;;5045133;28;20036;-78
2021/01/24 00:47:23;;;;;;;14.45;7.45;;;0.70;99.90;;;;;;5039036;28;20658;-78
2021/01/24 00:49:49;;;;;;;16.27;7.75;;;0.80;99.90;;;;;;5026022;28;20040;-78
2021/01/24 00:52:15;;;;;;;14.70;7.20;;;0.80;99.90;;;;;;5010256;28;20091;-78
2021/01/24 00:54:41;;;;;;;13.88;7.47;;;0.80;99.90;;;;;;5004439;28;20591;-78
2021/01/24 00:57:07;;;;;;;13.63;7.60;;;0.80;99.90;;;;;;5002070;28;20124;-77
2021/01/24 00:59:33;;;;;;;16.55;7.63;;;0.80;99.90;;;;;;5020468;28;20037;-78
2021/01/24 01:01:59;;;;;;;14.85;7.90;;;0.80;99.90;;;;;;5019586;28;20069;-78
2021/01/24 01:04:25;;;;;;;14.73;7.57;;;0.80;99.90;;;;;;5020682;28;20067;-77
2021/01/24 01:06:51;;;;;;;15.40;7.85;;;0.80;99.90;;;;;;5037342;28;20030;-77
2021/01/24 01:09:17;;;;;;;15.55;7.78;;;0.80;99.90;;;;;;5017855;28;20116;-77
2021/01/24 01:11:42;;;;;;;15.75;8.10;;;0.80;99.90;;;;;;5035374;28;20017;-78
2021/01/24 01:14:08;;;;;;;17.83;8.40;;;0.80;99.90;;;;;;5019860;28;20046;-77
2021/01/24 01:16:34;;;;;;;16.42;7.78;;;0.80;99.90;;;;;;5020313;28;20088;-77
2021/01/24 01:19:00;;;;;;;19.27;8.30;;;0.80;99.90;;;;;;5004361;28;20198;-77
2021/01/24 01:21:26;;;;;;;16.38;8.20;;;0.80;99.90;;;;;;5038467;28;20034;-77
2021/01/24 01:23:51;;;;;;;20.30;9.38;;;0.70;99.90;;;;;;5039047;28;20035;-77
2021/01/24 01:26:17;;;;;;;18.40;9.02;;;0.70;99.90;;;;;;5036998;28;20498;-77
2021/01/24 01:28:43;;;;;;;16.05;8.02;;;0.70;99.90;;;;;;5029613;28;20049;-77
2021/01/24 01:31:09;;;;;;;17.75;8.90;;;0.60;99.90;;;;;;5037502;28;20037;-76
2021/01/24 01:33:34;;;;;;;17.02;8.55;;;0.60;99.90;;;;;;5038216;28;20036;-77
2021/01/24 01:36:00;;;;;;;15.73;7.93;;;0.60;99.90;;;;;;5028185;28;20065;-77
2021/01/24 01:38:26;;;;;;;18.80;8.38;;;0.70;99.90;;;;;;5033513;28;20053;-78
2021/01/24 01:40:52;;;;;;;16.02;8.18;;;0.70;99.90;;;;;;5019562;28;20036;-78
2021/01/24 01:43:18;;;;;;;17.10;8.45;;;0.70;99.90;;;;;;5036563;28;20046;-77
2021/01/24 01:45:44;;;;;;;17.35;8.07;;;0.70;99.90;;;;;;5037548;28;20037;-78
2021/01/24 01:48:10;;;;;;;18.98;8.20;;;0.70;99.90;;;;;;5018093;28;20041;-78
2021/01/24 01:50:37;;;;;;;15.32;7.15;;;0.70;99.90;;;;;;5037030;28;20033;-77
2021/01/24 01:53:02;;;;;;;17.25;8.05;;;0.70;99.90;;;;;;5036339;28;20504;-77
2021/01/24 01:55:28;;;;;;;14.65;7.15;;;0.80;99.90;;;;;;5037346;28;20061;-77
2021/01/24 01:57:57;;;;;;;13.77;7.63;;;0.70;99.90;;;;;;5014189;28;20048;-77
2021/01/24 02:00:23;;;;;;;16.80;8.00;;;0.70;99.90;;;;;;5043232;28;20056;-77
2021/01/24 02:03:03;;;;;;;15.82;8.48;;;0.70;99.90;;;;;;5025125;28;20068;-77
2021/01/24 02:06:06;;;;;;;17.52;8.30;;;0.80;99.90;;;;;;4999035;28;20037;-78
2021/01/24 02:08:50;;;;;;;16.80;8.05;;;0.70;99.90;;;;;;5017088;28;20032;-77
2021/01/24 02:11:48;;;;;;;16.63;8.48;;;0.70;99.90;;;;;;5034002;28;20468;-77
2021/01/24 02:14:28;;;;;;;15.20;7.90;;;0.70;99.90;;;;;;4997393;28;20057;-77
2021/01/24 02:16:57;;;;;;;15.82;8.45;;;0.70;99.90;;;;;;5001299;28;20025;-78
2021/01/24 02:20:03;;;;;;;18.17;7.68;;;0.70;99.90;;;;;;5002745;28;20037;-77
2021/01/24 02:22:32;;;;;;;16.50;8.52;;;0.70;99.90;;;;;;5035401;28;20037;-77
2021/01/24 02:25:25;;;;;;;18.23;8.02;;;0.70;99.90;;;;;;5019333;28;20034;-77
2021/01/24 02:28:25;;;;;;;18.50;8.13;;;0.70;99.90;;;;;;5034484;28;20109;-77
2021/01/24 02:30:51;;;;;;;18.90;9.00;;;0.60;99.90;;;;;;5019376;28;20042;-77
2021/01/24 02:33:21;;;;;;;19.40;7.70;;;0.60;99.90;;;;;;5034770;28;20038;-76
2021/01/24 02:35:52;;;;;;;17.65;9.18;;;0.60;99.90;;;;;;5035300;28;20040;-77
2021/01/24 02:38:19;;;;;;;15.57;7.25;;;0.60;99.90;;;;;;5023201;28;20661;-77
2021/01/24 02:40:46;;;;;;;20.42;7.93;;;0.50;99.90;;;;;;4998368;28;20022;-76
2021/01/24 02:43:13;;;;;;;18.60;8.50;;;0.50;99.90;;;;;;4999522;28;20457;-77
2021/01/24 02:45:44;;;;;;;16.80;8.48;;;0.60;99.90;;;;;;5016059;28;20065;-78
2021/01/24 02:48:13;;;;;;;14.40;7.03;;;0.60;99.90;;;;;;5013549;28;20038;-77
2021/01/24 02:50:40;;;;;;;16.73;7.93;;;0.60;99.90;;;;;;5019586;28;20038;-77
2021/01/24 02:53:07;;;;;;;18.05;7.68;;;0.60;99.90;;;;;;5026511;28;20112;-77
2021/01/24 02:55:34;;;;;;;14.13;7.20;;;0.60;99.90;;;;;;5034672;28;20029;-78
2021/01/24 02:58:00;;;;;;;16.83;8.40;;;0.60;99.90;;;;;;5035164;28;20403;-77
2021/01/24 03:00:26;;;;;;;16.10;7.38;;;0.70;99.90;;;;;;5034512;28;20033;-77
2021/01/24 03:02:52;;;;;;;13.48;6.65;;;0.70;99.90;;;;;;5035895;28;20029;-78
2021/01/24 03:05:19;;;;;;;14.00;7.72;;;0.70;99.90;;;;;;5035982;28;20041;-77
2021/01/24 03:07:45;;;;;;;17.90;7.47;;;0.70;99.90;;;;;;5016872;28;20037;-77
2021/01/24 03:10:12;;;;;;;15.23;7.90;;;0.70;99.90;;;;;;5018031;28;20566;-77
2021/01/24 03:13:19;;;;;;;18.23;7.82;;;0.70;99.90;;;;;;5023346;28;20045;-77
2021/01/24 03:15:47;;;;;;;16.73;7.97;;;0.60;99.90;;;;;;5018068;28;20029;-77
2021/01/24 03:18:18;;;;;;;18.02;8.70;;;0.60;99.90;;;;;;5034542;28;20025;-77
2021/01/24 03:20:48;;;;;;;15.23;7.32;;;0.60;99.90;;;;;;5034326;28;20073;-77
2021/01/24 03:23:14;;;;;;;15.23;8.60;;;0.60;99.90;;;;;;5034632;28;20034;-77
2021/01/24 03:25:42;;;;;;;18.02;8.30;;;0.60;99.90;;;;;;5034060;28;20088;-77
2021/01/24 03:28:08;;;;;;;18.02;8.85;;;0.60;99.90;;;;;;5011639;28;20045;-77
2021/01/24 03:30:37;;;;;;;16.77;7.78;;;0.60;99.90;;;;;;5036301;28;20032;-77
2021/01/24 03:33:04;;;;;;;15.82;8.20;;;0.50;99.90;;;;;;4999779;28;20034;-76
2021/01/24 03:35:30;;;;;;;15.65;7.68;;;0.50;99.90;;;;;;5030021;28;20033;-76
2021/01/24 03:37:56;;;;;;;17.25;8.13;;;0.50;99.90;;;;;;5002246;28;20095;-77
2021/01/24 03:40:22;;;;;;;14.82;7.95;;;0.50;99.90;;;;;;5010822;28;20030;-76
2021/01/24 03:42:47;;;;;;;15.55;7.97;;;0.50;99.90;;;;;;5010131;28;20046;-77
2021/01/24 03:45:14;;;;;;;14.48;7.55;;;0.50;99.90;;;;;;4993644;28;20130;-76
2021/01/24 03:47:39;;;;;;;18.08;7.50;;;0.50;99.90;;;;;;4992795;28;20433;-77
2021/01/24 03:50:06;;;;;;;17.70;8.13;;;0.50;99.90;;;;;;5011033;28;20034;-77
2021/01/24 03:52:32;;;;;;;13.77;7.55;;;0.50;99.90;;;;;;5012715;28;20041;-77
2021/01/24 03:54:58;;;;;;;13.35;7.57;;;0.50;99.90;;;;;;5011420;28;20034;-76
2021/01/24 03:57:24;;;;;;;14.35;6.65;;;0.50;99.90;;;;;;5011702;28;20034;-77
2021/01/24 03:59:51;;;;;;;17.75;8.02;;;0.60;99.90;;;;;;4995532;28;20049;-77
2021/01/24 04:02:21;;;;;;;13.98;7.07;;;0.60;99.90;;;;;;4995191;28;20045;-76
2021/01/24 04:04:47;;;;;;;15.40;7.28;;;0.60;99.90;;;;;;5013662;28;20029;-77
2021/01/24 04:07:13;;;;;;;12.88;6.10;;;0.60;99.90;;;;;;5011131;28;20038;-77
2021/01/24 04:09:39;;;;;;;13.75;7.13;;;0.60;99.90;;;;;;5031534;28;20037;-77
2021/01/24 04:12:06;;;;;;;15.38;7.70;;;0.60;99.90;;;;;;5011134;28;20040;-77
2021/01/24 04:14:32;;;;;;;13.98;7.03;;;0.60;99.90;;;;;;5033382;28;20025;-77
2021/01/24 04:16:58;;;;;;;15.68;7.82;;;0.50;99.90;;;;;;5032743;28;20038;-77
2021/01/24 04:19:23;;;;;;;14.70;7.10;;;0.50;99.90;;;;;;5033663;28;20105;-77
2021/01/24 04:21:49;;;;;;;12.45;6.53;;;0.50;99.90;;;;;;5034003;28;20136;-77
2021/01/24 04:24:15;;;;;;;12.48;7.00;;;0.50;99.90;;;;;;5034210;28;20091;-77
2021/01/24 04:26:40;;;;;;;11.48;6.05;;;0.50;99.90;;;;;;5030745;28;20528;-77
2021/01/24 04:29:06;;;;;;;12.80;6.32;;;0.50;99.90;;;;;;5033421;28;20056;-78
2021/01/24 04:31:32;;;;;;;15.40;6.88;;;0.60;99.90;;;;;;5033936;28;20038;-77
2021/01/24 04:33:57;;;;;;;12.18;6.97;;;0.50;99.90;;;;;;5015995;28;20045;-77
2021/01/24 04:36:23;;;;;;;12.80;6.47;;;0.50;99.90;;;;;;5014423;28;20521;-77
2021/01/24 04:38:49;;;;;;;14.93;7.03;;;0.50;99.90;;;;;;5000251;28;20049;-77
2021/01/24 04:41:16;;;;;;;13.55;6.68;;;0.50;99.90;;;;;;5013371;28;20034;-77
2021/01/24 04:43:42;;;;;;;12.90;7.35;;;0.50;99.90;;;;;;4996909;28;20080;-77
2021/01/24 04:46:08;;;;;;;14.38;7.25;;;0.50;99.90;;;;;;5014102;28;20069;-76
2021/01/24 04:48:35;;;;;;;14.32;7.07;;;0.40;99.90;;;;;;5022273;28;20116;-77
2021/01/24 04:51:01;;;;;;;13.15;6.65;;;0.50;99.90;;;;;;5020461;28;20504;-77
2021/01/24 04:53:28;;;;;;;14.25;6.85;;;0.40;99.90;;;;;;5020520;28;20036;-77
2021/01/24 04:55:54;;;;;;;13.93;6.38;;;0.40;99.90;;;;;;5038267;28;20411;-77
2021/01/24 04:58:21;;;;;;;11.18;6.45;;;0.50;99.90;;;;;;5018775;28;20037;-76
2021/01/24 05:00:46;;;;;;;14.45;6.30;;;0.50;99.90;;;;;;5020616;28;20030;-77
2021/01/24 05:03:13;;;;;;;14.43;7.35;;;0.50;99.90;;;;;;5014814;28;20175;-77
2021/01/24 05:05:39;;;;;;;15.35;7.57;;;0.50;99.90;;;;;;5019168;28;20044;-77
2021/01/24 05:08:08;;;;;;;14.20;6.65;;;0.50;99.90;;;;;;5033381;28;20029;-76
2021/01/24 05:10:34;;;;;;;11.90;6.90;;;0.50;99.90;;;;;;5016390;28;20025;-77
2021/01/24 05:13:00;;;;;;;12.52;6.47;;;0.50;99.90;;;;;;5016686;28;20029;-76
2021/01/24 05:15:27;;;;;;;12.93;6.60;;;0.40;99.90;;;;;;5035584;28;20040;-77
2021/01/24 05:17:54;;;;;;;15.07;6.75;;;0.50;99.90;;;;;;5035565;28;20150;-77
2021/01/24 05:20:24;;;;;;;13.85;6.40;;;0.50;99.90;;;;;;5034769;28;20045;-77
2021/01/24 05:22:51;;;;;;;11.90;6.47;;;0.50;99.90;;;;;;5019109;28;20450;-76
2021/01/24 05:25:21;;;;;;;10.32;6.25;;;0.50;99.90;;;;;;5019302;28;20025;-77
2021/01/24 05:27:48;;;;;;;10.15;5.85;;;0.60;99.90;;;;;;5035682;28;20047;-77
2021/01/24 05:30:20;;;;;;;11.35;6.40;;;0.60;99.90;;;;;;4986513;28;20037;-77
2021/01/24 05:32:47;;;;;;;10.55;6.00;;;0.60;99.90;;;;;;5003335;28;20103;-77
2021/01/24 05:35:14;;;;;;;9.55;5.70;;;0.60;99.90;;;;;;5037088;28;20048;-76
2021/01/24 05:37:43;;;;;;;9.60;5.70;;;0.60;99.90;;;;;;5025690;28;20048;-77
2021/01/24 05:40:10;;;;;;;12.27;5.95;;;0.60;99.90;;;;;;5020529;28;20049;-77
2021/01/24 05:42:39;;;;;;;10.45;6.00;;;0.60;99.90;;;;;;5014071;28;20128;-76
2021/01/24 05:45:13;;;;;;;7.35;4.63;;;0.60;99.90;;;;;;5032070;28;20409;-76
2021/01/24 05:47:41;;;;;;;9.90;5.95;;;0.60;99.90;;;;;;5013480;28;20091;-76
2021/01/24 05:50:15;;;;;;;9.40;5.70;;;0.60;99.90;;;;;;5032128;28;20064;-76
2021/01/24 05:52:47;;;;;;;8.00;4.75;;;0.60;99.90;;;;;;5031848;28;20091;-76
2021/01/24 05:55:35;;;;;;;7.50;4.80;;;0.60;99.90;;;;;;5031869;28;20030;-76
2021/01/24 05:58:19;;;;;;;8.50;4.80;;;0.60;99.90;;;;;;5012753;28;20393;-76
2021/01/24 06:00:47;;;;;;;6.55;4.05;;;0.60;99.90;;;;;;4997212;28;20048;-76
2021/01/24 06:03:13;;;;;;;8.77;4.57;;;0.70;99.90;;;;;;5032186;28;20110;-76
2021/01/24 06:05:39;;;;;;;7.30;4.20;;;0.70;99.90;;;;;;5014791;28;20207;-76
2021/01/24 06:08:06;;;;;;;6.88;4.32;;;0.80;99.90;;;;;;4995578;28;20065;-75
2021/01/24 06:10:36;;;;;;;6.22;4.40;;;0.90;99.90;;;;;;5007968;28;20026;-76
2021/01/24 06:13:03;;;;;;;6.10;3.78;;;0.90;99.90;;;;;;5029492;28;20397;-76
2021/01/24 06:15:30;;;;;;;6.50;2.90;;;0.80;99.90;;;;;;5028214;28;20021;-76
2021/01/24 06:18:03;;;;;;;4.97;2.88;;;0.90;99.90;;;;;;5030556;28;20104;-77
2021/01/24 06:20:38;;;;;;;5.05;3.03;;;1.00;99.90;;;;;;5035131;28;20405;-77
2021/01/24 06:23:13;;;;;;;4.05;2.97;;;0.90;99.90;;;;;;5034853;28;20056;-77
2021/01/24 06:25:45;;;;;;;5.03;2.73;;;1.00;99.90;;;;;;5035476;28;20034;-77
2021/01/24 06:28:23;;;;;;;3.42;2.38;;;1.00;99.90;;;;;;4997213;28;20042;-77
2021/01/24 06:30:50;;;;;;;6.05;3.22;;;1.00;99.90;;;;;;5034627;28;20708;-77
2021/01/24 06:33:22;;;;;;;4.28;2.50;;;1.00;99.90;;;;;;5016892;28;20048;-77
2021/01/24 06:35:49;;;;;;;3.95;2.42;;;1.00;99.90;;;;;;4999826;28;20106;-76
2021/01/24 06:38:36;;;;;;;3.00;1.80;;;1.00;99.90;;;;;;5021516;28;20721;-76
2021/01/24 06:41:05;;;;;;;3.53;2.50;;;1.00;99.90;;;;;;5009955;28;20034;-76
2021/01/24 06:43:40;;;;;;;2.53;1.80;;;0.90;99.90;;;;;;5012060;28;20494;-76
2021/01/24 06:46:29;;;;;;;2.35;1.52;;;0.90;99.90;;;;;;5018676;28;20061;-76
2021/01/24 06:48:56;;;;;;;1.65;1.25;;;0.90;99.90;;;;;;5030555;28;20040;-77
2021/01/24 06:51:42;;;;;;;1.48;1.20;;;0.90;99.90;;;;;;5028388;28;20029;-76
2021/01/24 06:54:13;;;;;;;;;;;1.00;99.90;;;;;;5027483;28;20083;-76
2021/01/24 06:56:45;;;;;;;0.85;0.80;;;0.90;99.90;;;;;;5011594;28;20019;-76
2021/01/24 06:59:12;;;;;;;0.57;0.57;;;0.90;99.90;;;;;;5026927;28;20678;-76
2021/01/24 07:01:38;;;;;;;0.95;0.80;;;0.90;99.90;;;;;;5032535;28;20033;-76
2021/01/24 07:04:24;;;;;;;0.93;0.70;;;0.90;99.90;;;;;;5031458;28;20522;-76
2021/01/24 07:06:50;;;;;;;2.22;0.30;;;0.90;99.90;;;;;;5011726;28;20033;-76
2021/01/24 07:09:27;;;;;;;0.63;0.43;;;0.90;99.90;;;;;;5031084;28;20091;-77
2021/01/24 07:11:57;;;;;;;0.30;0.30;;;0.80;99.90;;;;;;5012650;28;20033;-76
2021/01/24 07:14:31;;;;;;;0.93;0.40;;;0.80;99.90;;;;;;5030958;28;20477;-76
2021/01/24 07:17:19;;;;;;;0.40;0.30;;;0.80;99.90;;;;;;5029113;28;20031;-76
2021/01/24 07:19:50;;;;;;;0.45;0.40;;;0.80;99.90;;;;;;5006141;28;20051;-77
2021/01/24 07:22:21;;;;;;;0.30;0.30;;;0.80;99.90;;;;;;5032959;28;20040;-76
2021/01/24 07:24:49;;;;;;;0.85;0.40;;;0.80;99.90;;;;;;5047789;28;20139;-77
2021/01/24 07:27:16;;;;;;;0.40;0.40;;;0.80;99.90;;;;;;5047587;28;20505;-77
2021/01/24 07:29:43;;;;;;;0.45;0.45;;;0.80;99.90;;;;;;5049440;28;20025;-76
2021/01/24 07:32:20;;;;;;;0.20;0.20;;;0.80;99.90;;;;;;5032551;28;20025;-76
2021/01/24 07:34:48;;;;;;;0.30;0.30;;;0.80;99.90;;;;;;5050877;28;20090;-76
2021/01/24 07:37:14;;;;;;;0.55;0.30;;;0.80;99.90;;;;;;5043457;28;20022;-76
2021/01/24 07:39:44;;;;;;;0.60;0.50;;;0.80;99.90;;;;;;5009632;28;20041;-76
2021/01/24 07:42:11;;;;;;;0.40;0.40;;;0.80;99.90;;;;;;5009852;28;20022;-76
2021/01/24 07:44:41;;;;;;;0.70;0.57;;;0.80;99.90;;;;;;5009580;28;20113;-76
2021/01/24 07:47:08;;;;;;;0.68;0.50;;;0.80;99.90;;;;;;5007854;28;20030;-76
2021/01/24 07:49:35;;;;;;;0.60;0.50;;;0.80;99.90;;;;;;4993487;28;20113;-76
2021/01/24 07:52:03;;;;;;;0.60;0.57;;;0.80;99.90;;;;;;5021718;28;20033;-76
2021/01/24 07:54:29;;;;;;;0.60;0.40;;;0.90;99.90;;;;;;5030525;28;20045;-76
2021/01/24 07:56:56;;;;;;;0.70;0.60;;;0.90;99.90;;;;;;5030434;28;20030;-77
2021/01/24 07:59:22;;;;;;;0.93;0.70;;;0.90;99.90;;;;;;5015460;28;20029;-77
2021/01/24 08:01:48;;;;;;;0.90;0.63;;;0.90;99.90;;;;;;5031381;28;20057;-77
2021/01/24 08:04:13;;;;;;;0.90;0.70;;;0.90;99.90;;;;;;5031738;28;20022;-77
2021/01/24 08:06:39;;;;;;;1.42;1.10;;;0.90;99.90;;;;;;5030258;28;20028;-77
2021/01/24 08:09:07;;;;;;;2.05;1.40;;;0.90;99.90;;;;;;5032165;28;20405;-76
2021/01/24 08:11:34;;;;;;;1.73;1.20;;;0.90;99.90;;;;;;5021167;28;20030;-77
2021/01/24 08:14:00;;;;;;;1.77;1.10;;;0.90;99.90;;;;;;5041721;28;20071;-77
2021/01/24 08:16:29;;;;;;;1.90;1.30;;;0.80;99.90;;;;;;5032939;28;20505;-77
2021/01/24 08:18:55;;;;;;;1.90;1.08;;;0.80;99.90;;;;;;5034379;28;20103;-77
2021/01/24 08:21:22;;;;;;;1.80;1.33;;;0.80;99.90;;;;;;5028483;28;20052;-77
2021/01/24 08:23:49;;;;;;;1.75;1.00;;;0.80;99.90;;;;;;5032182;28;20067;-76
2021/01/24 08:26:16;;;;;;;2.80;1.33;;;0.80;99.90;;;;;;5019481;28;20918;-76
2021/01/24 08:28:43;;;;;;;1.52;1.42;;;0.80;99.90;;;;;;5036094;28;20028;-77
2021/01/24 08:31:09;;;;;;;1.40;1.10;;;0.80;99.90;;;;;;5043114;28;20041;-77
2021/01/24 08:33:36;;;;;;;2.47;1.42;;;0.80;99.90;;;;;;5049988;28;20048;-77
2021/01/24 08:36:17;;;;;;;2.30;1.45;;;0.90;99.90;;;;;;5052819;28;20045;-77
2021/01/24 08:38:44;;;;;;;4.20;1.60;;;0.80;99.90;;;;;;5001973;28;20037;-76
2021/01/24 08:41:11;;;;;;;1.85;1.35;;;0.80;99.90;;;;;;5008980;28;20052;-76
2021/01/24 08:43:38;;;;;;;1.45;1.17;;;0.90;99.90;;;;;;5013475;28;20108;-77
2021/01/24 08:46:24;;;;;;;2.13;1.27;;;0.90;99.90;;;;;;5017994;28;20045;-77
2021/01/24 08:49:02;;;;;;;2.28;1.80;;;0.90;99.90;;;;;;5021577;28;20486;-76
2021/01/24 08:51:58;;;;;;;2.30;1.70;;;0.90;99.90;;;;;;5026541;28;20482;-76
2021/01/24 08:54:24;;;;;;;;;;;0.90;99.90;;;;;;5020651;28;20579;-76
2021/01/24 08:56:51;;;;;;;2.72;1.85;;;1.00;99.90;;;;;;5027399;28;19952;-77
2021/01/24 08:59:20;;;;;;;3.00;1.80;;;0.90;99.90;;;;;;5015755;28;20492;-76
2021/01/24 09:01:48;;;;;;;2.83;1.50;;;0.90;99.90;;;;;;5033536;28;20468;-77
2021/01/24 09:04:49;;;;;;;2.53;1.92;;;0.90;99.90;;;;;;5034360;28;20017;-76
2021/01/24 09:07:17;;;;;;;4.28;1.90;;;0.80;99.90;;;;;;4969600;28;20166;-77
2021/01/24 09:09:47;;;;;;;2.22;1.77;;;0.80;99.90;;;;;;5024107;28;20076;-77
2021/01/24 09:12:20;;;;;;;3.72;2.22;;;0.70;99.90;;;;;;5041173;28;20040;-78
2021/01/24 09:14:48;;;;;;;2.60;1.70;;;0.70;99.90;;;;;;5049459;28;20025;-77
2021/01/24 09:17:15;;;;;;;3.10;2.20;;;0.70;99.90;;;;;;5025728;28;20462;-77
2021/01/24 09:19:43;;;;;;;3.42;1.88;;;0.60;99.90;;;;;;5046812;28;20497;-77
2021/01/24 09:22:12;;;;;;;4.70;2.53;;;0.60;99.90;;;;;;5036177;28;20098;-76
2021/01/24 09:24:38;;;;;;;3.08;2.03;;;0.50;99.90;;;;;;5022922;28;20083;-77
2021/01/24 09:27:06;;;;;;;4.35;2.13;;;0.50;99.90;;;;;;5044247;28;20035;-77
2021/01/24 09:29:33;;;;;;;3.75;1.95;;;0.50;99.90;;;;;;5035689;28;20056;-76
2021/01/24 09:31:59;;;;;;;2.83;1.83;;;0.50;99.90;;;;;;5010013;28;20037;-77
2021/01/24 09:34:25;;;;;;;2.95;2.17;;;0.50;99.90;;;;;;5026012;28;20485;-76
2021/01/24 09:36:50;;;;;;;3.45;2.20;;;0.60;99.90;;;;;;5019187;28;20029;-77
2021/01/24 09:39:16;;;;;;;4.13;2.00;;;0.50;99.90;;;;;;5024415;28;20074;-77
2021/01/24 09:41:42;;;;;;;4.32;2.03;;;0.60;99.90;;;;;;5044845;28;20489;-77
2021/01/24 09:44:08;;;;;;;4.15;1.90;;;0.50;99.90;;;;;;5032661;28;20496;-76
2021/01/24 09:46:34;;;;;;;3.45;2.10;;;0.50;99.90;;;;;;5047782;28;20398;-77
2021/01/24 09:48:59;;;;;;;3.08;2.00;;;0.50;99.90;;;;;;5047182;28;20036;-76
2021/01/24 09:51:25;;;;;;;2.40;1.70;;;0.60;99.90;;;;;;5005701;28;20036;-76
2021/01/24 09:53:53;;;;;;;3.33;1.90;;;0.50;99.90;;;;;;5028377;28;20179;-77
2021/01/24 09:56:20;;;;;;;2.65;2.05;;;0.50;99.90;;;;;;5025895;28;20145;-77
2021/01/24 09:58:46;;;;;;;2.92;1.83;;;0.50;99.90;;;;;;5018332;28;20025;-77
2021/01/24 10:01:12;;;;;;;2.80;2.08;;;0.50;99.90;;;;;;5038929;28;20030;-76
2021/01/24 10:03:38;;;;;;;2.40;1.60;;;0.50;99.90;;;;;;5039266;28;20033;-77
2021/01/24 10:06:05;;;;;;;2.63;1.67;;;0.50;99.90;;;;;;5025411;28;20145;-77
2021/01/24 10:08:32;;;;;;;3.20;2.03;;;0.60;99.90;;;;;;5040014;28;20675;-77
2021/01/24 10:10:57;;;;;;;3.25;2.03;;;0.60;99.90;;;;;;5037192;28;20037;-76
2021/01/24 10:13:23;;;;;;;3.47;2.25;;;0.60;99.90;;;;;;5024729;28;20124;-77
2021/01/24 10:15:51;;;;;;;2.92;1.83;;;0.60;99.90;;;;;;5014884;28;20029;-77
2021/01/24 10:18:18;;;;;;;3.55;2.10;;;0.70;99.90;;;;;;5020301;28;20596;-77
2021/01/24 10:20:44;;;;;;;2.78;1.80;;;0.70;99.90;;;;;;5042258;28;20066;-77
2021/01/24 10:23:10;;;;;;;3.42;1.83;;;0.80;99.90;;;;;;5022500;28;20397;-77
2021/01/24 10:25:36;;;;;;;4.07;2.63;;;0.90;99.90;;;;;;5031915;28;20081;-76
2021/01/24 10:28:03;;;;;;;2.08;1.83;;;0.90;99.90;;;;;;5036855;28;20049;-77
2021/01/24 10:30:29;;;;;;;2.33;1.65;;;0.90;99.90;;;;;;5020475;28;20029;-76
2021/01/24 10:32:54;;;;;;;3.58;2.22;;;0.90;99.90;;;;;;5033191;28;21352;-77
2021/01/24 10:35:20;;;;;;;2.00;1.15;;;0.90;99.90;;;;;;5022771;28;20041;-77
2021/01/24 10:37:46;;;;;;;2.78;2.00;;;1.00;99.90;;;;;;5039999;28;20116;-77
2021/01/24 10:40:12;;;;;;;2.65;1.80;;;0.90;99.90;;;;;;5032645;28;20034;-77
2021/01/24 10:42:38;;;;;;;3.13;1.98;;;1.00;99.90;;;;;;4976448;28;21189;-77
2021/01/24 10:45:09;;;;;;;3.42;1.98;;;1.00;99.90;;;;;;5021702;28;20033;-76
2021/01/24 10:47:34;;;;;;;2.72;2.03;;;0.90;99.90;;;;;;5003975;28;21674;-77
2021/01/24 10:50:01;;;;;;;3.30;1.85;;;0.90;99.90;;;;;;5009950;28;20037;-76
2021/01/24 10:52:27;;;;;;;3.45;2.10;;;0.90;99.90;;;;;;5005930;28;20484;-77
2021/01/24 10:54:53;;;;;;;2.70;1.75;;;0.90;99.90;;;;;;5028737;28;20053;-76
2021/01/24 10:57:19;;;;;;;2.70;1.55;;;0.90;99.90;;;;;;5008502;28;20061;-77
2021/01/24 10:59:45;;;;;;;4.53;2.08;;;0.90;99.90;;;;;;5004842;28;20425;-77
2021/01/24 11:02:11;;;;;;;3.30;1.90;;;0.90;99.90;;;;;;5027030;28;20075;-77
2021/01/24 11:04:36;;;;;;;2.20;1.50;;;0.90;99.90;;;;;;5001306;28;20021;-76
2021/01/24 11:07:03;;;;;;;2.40;1.73;;;0.90;99.90;;;;;;5016668;28;20030;-77
2021/01/24 11:09:29;;;;;;;3.42;2.20;;;0.90;99.90;;;;;;5038976;28;20048;-77
2021/01/24 11:11:55;;;;;;;3.58;2.03;;;0.90;99.90;;;;;;5030331;28;20061;-77
2021/01/24 11:14:21;;;;;;;1.30;1.10;;;1.00;99.90;;;;;;5029735;28;20030;-77
2021/01/24 11:16:47;;;;;;;2.63;1.85;;;1.00;99.90;;;;;;5010349;28;20029;-78
2021/01/24 11:19:13;;;;;;;2.75;1.70;;;1.00;99.90;;;;;;5014439;28;20497;-78
2021/01/24 11:21:39;;;;;;;2.22;1.60;;;1.00;99.90;;;;;;5015945;28;20033;-77
2021/01/24 11:24:05;;;;;;;2.25;1.73;;;1.00;99.90;;;;;;5012679;28;20026;-76
2021/01/24 11:26:31;;;;;;;3.47;1.65;;;1.10;99.90;;;;;;5030937;28;20560;-76
2021/01/24 11:28:56;;;;;;;3.00;1.73;;;1.10;99.90;;;;;;5007601;28;20097;-78
2021/01/24 11:31:22;;;;;;;2.03;1.60;;;1.10;99.90;;;;;;5011381;28;20057;-77
2021/01/24 11:33:49;;;;;;;2.47;1.58;;;1.10;99.90;;;;;;5039424;28;20040;-77
2021/01/24 11:36:15;;;;;;;2.45;1.65;;;1.20;99.90;;;;;;4988591;28;20029;-77
2021/01/24 11:38:42;;;;;;;2.00;1.40;;;1.30;99.90;;;;;;4986447;28;20037;-74
2021/01/24 11:41:08;;;;;;;3.15;1.70;;;1.30;99.90;;;;;;5025872;28;20025;-76
2021/01/24 11:43:34;;;;;;;3.08;1.40;;;1.30;99.90;;;;;;5009491;28;20034;-75
2021/01/24 11:46:00;;;;;;;3.17;1.83;;;1.40;99.90;;;;;;5023303;28;20044;-76
2021/01/24 11:48:26;;;;;;;2.20;1.73;;;1.50;99.90;;;;;;5005758;28;20532;-77
2021/01/24 11:50:53;;;;;;;2.40;1.30;;;1.50;99.90;;;;;;5010857;28;20039;-76
2021/01/24 11:53:22;;;;;;;2.17;1.48;;;1.50;99.90;;;;;;5017417;28;20044;-77
2021/01/24 11:55:52;;;;;;;2.65;1.38;;;1.50;99.90;;;;;;4997530;28;20112;-76
2021/01/24 11:58:20;;;;;;;2.10;1.52;;;1.40;99.90;;;;;;5032461;28;20116;-76
2021/01/24 12:00:46;;;;;;;2.13;1.40;;;1.40;99.90;;;;;;5038452;28;20022;-77
2021/01/24 12:03:12;;;;;;;2.03;1.52;;;1.40;99.90;;;;;;5040041;28;20144;-77
2021/01/24 12:05:38;;;;;;;1.58;1.48;;;1.30;99.90;;;;;;5036700;28;20514;-77
2021/01/24 12:08:05;;;;;;;2.08;1.30;;;1.30;99.90;;;;;;5002650;28;20057;-77
2021/01/24 12:10:30;;;;;;;1.40;1.30;;;1.20;99.90;;;;;;5030473;28;20361;-77
2021/01/24 12:12:56;;;;;;;1.63;1.08;;;1.20;99.90;;;;;;5034929;28;20029;-77
2021/01/24 12:15:22;;;;;;;1.40;1.20;;;1.20;99.90;;;;;;5016730;28;20022;-77
2021/01/24 12:17:48;;;;;;;1.45;1.20;;;1.20;99.90;;;;;;5018235;28;20537;-77
2021/01/24 12:20:14;;;;;;;2.92;1.20;;;1.20;99.90;;;;;;5017088;28;20044;-77
2021/01/24 12:22:40;;;;;;;1.73;1.08;;;1.10;99.90;;;;;;5035945;28;20022;-77
2021/01/24 12:25:07;;;;;;;1.48;1.27;;;1.10;99.90;;;;;;5033149;28;20131;-77
2021/01/24 12:27:33;;;;;;;1.20;1.00;;;1.10;99.90;;;;;;5029286;28;20592;-76
2021/01/24 12:29:59;;;;;;;1.35;1.10;;;1.00;99.90;;;;;;5029627;28;20124;-76
2021/01/24 12:32:24;;;;;;;1.40;1.25;;;1.00;99.90;;;;;;5027008;28;20049;-77
2021/01/24 12:34:50;;;;;;;1.88;1.23;;;0.90;99.90;;;;;;5013619;28;20033;-76
2021/01/24 12:37:16;;;;;;;1.63;1.30;;;0.90;99.90;;;;;;5028794;28;20033;-77
2021/01/24 12:39:42;;;;;;;1.55;1.30;;;0.90;99.90;;;;;;5032506;28;20104;-76
2021/01/24 12:42:08;;;;;;;1.13;1.02;;;0.90;99.90;;;;;;4996455;28;20108;-77
2021/01/24 12:44:33;;;;;;;1.02;0.75;;;0.90;99.90;;;;;;5024562;28;20051;-76
2021/01/24 12:46:59;;;;;;;1.67;1.20;;;0.90;99.90;;;;;;5027928;28;20037;-76
2021/01/24 12:49:25;;;;;;;1.35;0.98;;;0.90;99.90;;;;;;5015343;28;20033;-77
2021/01/24 12:51:51;;;;;;;1.23;1.10;;;1.00;99.90;;;;;;5013403;28;20033;-77
2021/01/24 12:54:16;;;;;;;1.38;0.93;;;1.00;99.90;;;;;;4996953;28;20496;-77
2021/01/24 12:56:42;;;;;;;1.40;1.02;;;1.00;99.90;;;;;;4994508;28;20036;-76
2021/01/24 12:59:08;;;;;;;1.20;0.80;;;1.10;99.90;;;;;;5011471;28;20949;-75